»·PEaware :: N45XS KOAK-KWVI

N45XS :: KOAK-KWVI

FLIGHT INFORMATION

Flight Status: Arrived
Operator: Privately registered:
United States
More flights under this callsign
Pilot: Kaloso N. (23070)
Aircraft: BEECH AIRCRAFT BARON
(BE58)
More flights by this aircraft type
Origin: KOAK Metro Oakland Intl
United States
Destination: KWVI Watsonville Mun
United States
More flights between these airports :: More routes between these airports
Route: +NUEVO8 SHOEY SNS
File this flight plan on PilotEdge
Remarks: LOC RWY2
Altitude:
(Current/Filed)
7,000ft
Speed:
(Current/Filed)
160kts
Departed: 17-Jan-19 01:31 PM
Arrived: 17-Jan-19 02:06 PM
Distance/Time
Traveled:
51nm/0:35
Distance/Time
To Go:
Arrived

Flight Plot

Page will automatically refresh every two minutes.

Flight plan parsing failed; only flown route is shown


Map Options




Map Legend


Flown Route
Filed Route
Departure Airport
Arrival Airport
Navaid (VOR, NDB)
Fix

Horizontal Profiles

Position Reports

Time Latitude Longitude Heading Altitude Ground
Speed
17-Jan-19 12:15 37.725539 -122.203160 288 4ft 0kts
17-Jan-19 12:15 37.725539 -122.203160 288 4ft 0kts
17-Jan-19 12:16 37.725539 -122.203160 288 4ft 0kts
17-Jan-19 12:17 37.725539 -122.203160 288 4ft 0kts
17-Jan-19 12:18 37.725539 -122.203160 288 4ft 0kts
17-Jan-19 12:19 37.725539 -122.203160 288 4ft 0kts
17-Jan-19 12:20 37.725539 -122.203160 288 4ft 0kts
17-Jan-19 12:21 37.725539 -122.203160 288 4ft 0kts
17-Jan-19 12:22 37.725539 -122.203160 288 4ft 0kts
17-Jan-19 12:23 37.725539 -122.203160 288 4ft 0kts
17-Jan-19 12:24 37.725539 -122.203160 288 4ft 0kts
17-Jan-19 12:25 37.725539 -122.203160 288 4ft 0kts
17-Jan-19 12:26 37.725539 -122.203160 288 4ft 0kts
17-Jan-19 12:27 37.725539 -122.203160 288 4ft 0kts
17-Jan-19 12:28 37.725539 -122.203160 288 4ft 0kts
17-Jan-19 12:29 37.725539 -122.203160 288 4ft 0kts
17-Jan-19 12:30 37.725539 -122.203160 288 4ft 0kts
17-Jan-19 12:32 37.725539 -122.203160 288 4ft 0kts
17-Jan-19 12:32 37.725539 -122.203160 288 4ft 0kts
17-Jan-19 12:33 37.725539 -122.203160 288 4ft 0kts
17-Jan-19 12:34 37.725539 -122.203160 288 4ft 0kts
17-Jan-19 12:36 37.725539 -122.203160 288 4ft 0kts
17-Jan-19 12:37 37.725539 -122.203160 288 4ft 0kts
17-Jan-19 12:37 37.725539 -122.203160 288 4ft 0kts
17-Jan-19 12:38 37.725539 -122.203160 288 4ft 0kts
17-Jan-19 12:40 37.725539 -122.203160 288 4ft 0kts
17-Jan-19 12:40 37.725539 -122.203160 288 4ft 0kts
17-Jan-19 12:42 37.725539 -122.203160 288 4ft 0kts
17-Jan-19 12:42 37.725539 -122.203160 288 4ft 0kts
17-Jan-19 12:43 37.725539 -122.203160 288 4ft 0kts
17-Jan-19 12:44 37.725539 -122.203160 288 4ft 0kts
17-Jan-19 12:45 37.725539 -122.203160 288 4ft 0kts
17-Jan-19 12:46 37.725539 -122.203160 288 4ft 0kts
17-Jan-19 12:47 37.725539 -122.203160 288 4ft 0kts
17-Jan-19 12:48 37.725539 -122.203160 288 4ft 0kts
17-Jan-19 12:49 37.725539 -122.203160 288 4ft 0kts
17-Jan-19 12:50 37.725539 -122.203160 288 4ft 0kts
17-Jan-19 12:51 37.725539 -122.203160 288 4ft 0kts
17-Jan-19 12:52 37.725539 -122.203160 288 4ft 0kts
17-Jan-19 12:53 37.725539 -122.203160 288 4ft 0kts
17-Jan-19 12:54 37.725539 -122.203160 288 4ft 0kts
17-Jan-19 12:55 37.725539 -122.203160 288 4ft 0kts
17-Jan-19 12:56 37.725539 -122.203160 288 4ft 0kts
17-Jan-19 12:58 37.725539 -122.203160 288 4ft 0kts
17-Jan-19 12:59 37.725539 -122.203160 288 4ft 0kts
17-Jan-19 13:00 37.725539 -122.203160 288 4ft 0kts
17-Jan-19 13:01 37.725539 -122.203160 288 4ft 0kts
17-Jan-19 13:02 37.725539 -122.203160 288 4ft 0kts
17-Jan-19 13:03 37.725539 -122.203160 288 4ft 0kts
17-Jan-19 13:04 37.725539 -122.203160 288 4ft 0kts
17-Jan-19 13:05 37.725539 -122.203160 288 4ft 0kts
17-Jan-19 13:06 37.725539 -122.203160 288 4ft 0kts
17-Jan-19 13:07 37.725539 -122.203160 288 4ft 0kts
17-Jan-19 13:08 37.725539 -122.203160 288 4ft 0kts
17-Jan-19 13:09 37.725539 -122.203160 288 4ft 0kts
17-Jan-19 13:10 37.725539 -122.203160 288 4ft 0kts
17-Jan-19 13:11 37.725539 -122.203160 288 4ft 0kts
17-Jan-19 13:12 37.725539 -122.203160 288 4ft 0kts
17-Jan-19 13:13 37.725539 -122.203160 288 4ft 0kts
17-Jan-19 13:14 37.725539 -122.203160 288 4ft 0kts
17-Jan-19 13:15 37.725539 -122.203160 288 4ft 0kts
17-Jan-19 13:16 37.725539 -122.203160 288 4ft 0kts
17-Jan-19 13:17 37.725539 -122.203160 288 4ft 0kts
17-Jan-19 13:17 37.725539 -122.203160 288 4ft 0kts
17-Jan-19 13:19 37.725907 -122.204642 290 4ft 9kts
17-Jan-19 13:19 37.726422 -122.206431 291 4ft 8kts
17-Jan-19 13:20 37.727091 -122.208493 294 4ft 1kts
17-Jan-19 13:22 37.726157 -122.205677 117 4ft 13kts
17-Jan-19 13:22 37.725592 -122.204235 173 4ft 0kts
17-Jan-19 13:23 37.725602 -122.204391 287 4ft 0kts
17-Jan-19 13:24 37.725592 -122.204503 195 4ft 0kts
17-Jan-19 13:25 37.725592 -122.204503 195 4ft 0kts
17-Jan-19 13:26 37.725026 -122.204796 239 4ft 7kts
17-Jan-19 13:27 37.729458 -122.219176 293 234ft 115kts
17-Jan-19 13:28 37.727524 -122.251506 219 1660ft 124kts
17-Jan-19 13:29 37.699457 -122.275676 213 3203ft 121kts
17-Jan-19 13:30 37.671856 -122.298898 213 4605ft 120kts
17-Jan-19 13:31 37.651439 -122.329127 211 5887ft 119kts
17-Jan-19 13:32 37.623970 -122.351914 213 7107ft 124kts
17-Jan-19 13:33 37.587134 -122.382610 213 7034ft 177kts
17-Jan-19 13:34 37.545795 -122.417024 213 7030ft 183kts
17-Jan-19 13:35 37.503582 -122.452132 213 7030ft 183kts
17-Jan-19 13:36 37.456045 -122.464669 180 7030ft 183kts
17-Jan-19 13:37 37.406558 -122.473371 205 7031ft 183kts
17-Jan-19 13:38 37.360916 -122.500280 205 7030ft 183kts
17-Jan-19 13:39 37.330149 -122.546451 251 7031ft 183kts
17-Jan-19 13:40 37.299384 -122.581433 148 7027ft 182kts
17-Jan-19 13:41 37.274384 -122.527527 110 7030ft 183kts
17-Jan-19 13:42 37.257608 -122.468083 109 7030ft 183kts
17-Jan-19 13:43 37.240834 -122.408548 109 7030ft 183kts
17-Jan-19 13:44 37.224023 -122.348860 109 7030ft 183kts
17-Jan-19 13:45 37.203834 -122.291930 137 7034ft 183kts
17-Jan-19 13:46 37.166901 -122.249111 135 7030ft 184kts
17-Jan-19 13:47 37.130827 -122.203728 135 7030ft 184kts
17-Jan-19 13:48 37.095533 -122.157892 132 7030ft 184kts
17-Jan-19 13:49 37.061085 -122.111396 132 7030ft 184kts
17-Jan-19 13:50 37.024158 -122.066947 136 7030ft 184kts
17-Jan-19 13:51 36.987178 -122.022619 135 7030ft 184kts
17-Jan-19 13:52 36.943423 -122.008188 203 7032ft 184kts
17-Jan-19 13:57 36.768389 -121.949406 123 2992ft 153kts
17-Jan-19 13:58 36.761169 -121.902924 53 2994ft 154kts
17-Jan-19 13:59 36.787116 -121.860331 52 2991ft 155kts
17-Jan-19 14:00 36.812935 -121.818199 50 2990ft 155kts
17-Jan-19 14:01 36.855622 -121.818432 343 2278ft 180kts
17-Jan-19 14:02 36.890097 -121.827202 22 1371ft 120kts
17-Jan-19 14:03 36.910275 -121.811441 30 581ft 102kts
17-Jan-19 14:04 36.928946 -121.795923 32 177ft 103kts
17-Jan-19 14:05 36.937263 -121.788102 191 146ft 16kts
17-Jan-19 14:06 36.936741 -121.788438 209 145ft 0kts

Navigation Log

Ident Type
Flight plan parsing failed, navigation log unavailable